Time;durP1;ratioP1;P1;durP2;ratioP2;P2;SDS_P1;SDS_P2;PMS_P1;PMS_P2;Temp;Humidity;BMP_temperature;BMP_pressure;BME280_temperature;BME280_humidity;BME280_pressure;Samples;Min_cycle;Max_cycle;Signal;HPM_P1;HPM_P2
2021/10/06 00:00:39;;;;;;;12.58;6.40;;;27.40;96.40;;;;;;1869845;76;21096;-86
2021/10/06 00:03:10;;;;;;;9.80;5.95;;;27.60;96.60;;;;;;1910390;74;21093;-85
2021/10/06 00:05:41;;;;;;;10.48;5.83;;;27.50;97.00;;;;;;1880403;76;21522;-86
2021/10/06 00:08:13;;;;;;;13.25;6.22;;;27.50;99.90;;;;;;1902565;75;21094;-86
2021/10/06 00:10:44;;;;;;;10.13;6.45;;;27.50;99.20;;;;;;1866917;75;21593;-86
2021/10/06 00:13:15;;;;;;;11.80;6.78;;;27.60;99.20;;;;;;1856119;76;21629;-86
2021/10/06 00:15:46;;;;;;;10.80;6.72;;;27.70;99.10;;;;;;1872225;75;21176;-84
2021/10/06 00:18:18;;;;;;;11.83;6.75;;;27.70;99.90;;;;;;1846745;76;21174;-86
2021/10/06 00:20:50;;;;;;;10.43;5.97;;;27.70;99.80;;;;;;1868901;76;21594;-86
2021/10/06 00:23:21;;;;;;;10.03;5.83;;;27.60;99.90;;;;;;1852564;76;21539;-86
2021/10/06 00:25:52;;;;;;;8.50;5.30;;;27.60;99.90;;;;;;1861519;76;21091;-86
2021/10/06 00:28:22;;;;;;;9.78;6.12;;;;;;;;;;1909599;75;21066;-86
2021/10/06 00:30:53;;;;;;;10.63;5.97;;;27.60;96.10;;;;;;1869152;75;21101;-84
2021/10/06 00:33:28;;;;;;;9.15;6.10;;;27.60;96.50;;;;;;1866224;77;21552;-86
2021/10/06 00:35:57;;;;;;;8.68;6.17;;;27.60;96.40;;;;;;1859389;76;21104;-86
2021/10/06 00:38:28;;;;;;;9.60;5.97;;;27.70;96.40;;;;;;1864777;76;21139;-85
2021/10/06 00:40:58;;;;;;;8.93;6.20;;;27.70;96.10;;;;;;1853193;76;21170;-85
2021/10/06 00:43:29;;;;;;;10.88;6.65;;;27.80;96.10;;;;;;1860078;75;21080;-85
2021/10/06 00:46:00;;;;;;;9.03;5.65;;;27.80;96.00;;;;;;1846277;76;21508;-86
2021/10/06 00:48:31;;;;;;;8.25;5.80;;;27.90;95.50;;;;;;1910584;75;21054;-85
2021/10/06 00:51:02;;;;;;;9.33;5.30;;;28.00;95.30;;;;;;1866029;77;21617;-85
2021/10/06 00:53:33;;;;;;;9.65;4.85;;;28.00;95.10;;;;;;1860984;77;21247;-86
2021/10/06 00:56:04;;;;;;;9.03;5.05;;;28.10;95.00;;;;;;1911131;74;21094;-85
2021/10/06 00:58:35;;;;;;;8.85;5.03;;;28.20;94.90;;;;;;1867850;75;21071;-85
2021/10/06 01:01:06;;;;;;;9.90;4.97;;;28.30;94.80;;;;;;1921126;74;21152;-86
2021/10/06 01:03:40;;;;;;;7.42;5.20;;;28.40;94.70;;;;;;1877651;75;21623;-75
2021/10/06 01:06:11;;;;;;;11.00;5.60;;;28.50;94.60;;;;;;1844289;78;21144;-76
2021/10/06 01:08:42;;;;;;;5.87;4.35;;;28.50;94.40;;;;;;1877413;76;21606;-76
2021/10/06 01:11:13;;;;;;;9.78;4.60;;;28.60;94.20;;;;;;1844223;78;21582;-76
2021/10/06 01:13:44;;;;;;;7.42;4.50;;;28.60;93.90;;;;;;1843898;77;21080;-80
2021/10/06 01:16:15;;;;;;;8.40;4.33;;;28.70;93.80;;;;;;1877292;76;21150;-77
2021/10/06 01:18:46;;;;;;;5.85;4.10;;;28.70;93.60;;;;;;1813084;78;21432;-75
2021/10/06 01:21:18;;;;;;;8.40;5.50;;;28.80;93.30;;;;;;1847170;76;21104;-75
2021/10/06 01:23:52;;;;;;;7.50;4.80;;;28.80;93.20;;;;;;1874286;75;21147;-75
2021/10/06 01:26:23;;;;;;;8.13;4.42;;;28.80;93.30;;;;;;1876495;75;21136;-75
2021/10/06 01:29:14;;;;;;;6.72;5.10;;;28.90;93.30;;;;;;1869358;75;21794;-75
2021/10/06 01:31:47;;;;;;;5.47;3.87;;;28.90;93.30;;;;;;1874898;75;21574;-76
2021/10/06 01:34:21;;;;;;;6.20;3.70;;;29.00;93.00;;;;;;1916804;72;21155;-79
2021/10/06 01:36:55;;;;;;;5.92;3.17;;;29.00;92.90;;;;;;1940203;73;21098;-77
2021/10/06 01:39:26;;;;;;;7.10;3.75;;;29.20;92.70;;;;;;1874828;75;21126;-77
2021/10/06 01:41:57;;;;;;;6.78;3.85;;;29.30;92.50;;;;;;1877676;75;21201;-76
2021/10/06 01:44:28;;;;;;;5.70;3.67;;;29.30;92.30;;;;;;1933870;73;21127;-75
2021/10/06 01:46:59;;;;;;;6.25;3.65;;;29.30;92.20;;;;;;1906739;73;21129;-75
2021/10/06 01:49:31;;;;;;;5.95;3.08;;;29.30;92.10;;;;;;1888691;73;21772;-73
2021/10/06 01:52:01;;;;;;;5.05;3.33;;;29.40;92.10;;;;;;1846801;76;21543;-75
2021/10/06 01:54:32;;;;;;;4.70;2.85;;;29.40;91.70;;;;;;1878243;74;21153;-76
2021/10/06 01:57:03;;;;;;;5.53;3.15;;;29.40;91.50;;;;;;1927727;73;21138;-88
2021/10/06 01:59:34;;;;;;;5.05;2.50;;;29.40;91.20;;;;;;1892158;74;21202;-82
2021/10/06 02:02:05;;;;;;;3.77;2.80;;;29.50;91.40;;;;;;1918704;73;21531;-83
2021/10/06 02:04:35;;;;;;;3.62;2.33;;;29.50;91.50;;;;;;1941717;73;21128;-81
2021/10/06 02:07:06;;;;;;;5.17;2.72;;;29.60;91.30;;;;;;1921015;73;21175;-82
2021/10/06 02:09:37;;;;;;;4.05;2.50;;;29.70;91.20;;;;;;1911941;73;21698;-81
2021/10/06 02:12:08;;;;;;;5.92;2.42;;;29.80;91.00;;;;;;1892728;73;21133;-81
2021/10/06 02:14:38;;;;;;;4.35;2.30;;;29.80;90.80;;;;;;1849692;76;21130;-81
2021/10/06 02:17:09;;;;;;;4.35;2.90;;;29.90;90.60;;;;;;1909737;73;21448;-81
2021/10/06 02:19:43;;;;;;;6.58;2.65;;;29.90;90.50;;;;;;1941980;73;21168;-80
2021/10/06 02:22:14;;;;;;;4.53;2.87;;;29.90;90.50;;;;;;1944360;73;21128;-81
2021/10/06 02:24:45;;;;;;;8.95;3.15;;;29.90;90.60;;;;;;1921926;73;21129;-80
2021/10/06 02:27:17;;;;;;;6.08;3.40;;;29.90;90.70;;;;;;1911786;73;21113;-84
2021/10/06 02:29:48;;;;;;;6.30;2.98;;;30.00;90.70;;;;;;1919451;72;21556;-83
2021/10/06 02:32:19;;;;;;;6.17;2.33;;;30.00;90.70;;;;;;1900388;73;21160;-84
2021/10/06 02:34:50;;;;;;;5.00;2.67;;;30.10;90.30;;;;;;1880559;73;21160;-82
2021/10/06 02:37:21;;;;;;;6.20;2.85;;;30.10;90.20;;;;;;1930173;72;21135;-84
2021/10/06 02:39:51;;;;;;;4.05;2.40;;;30.20;90.20;;;;;;1897461;73;21647;-84
2021/10/06 02:42:22;;;;;;;3.62;2.25;;;30.20;90.00;;;;;;1926640;73;21113;-83
2021/10/06 02:44:53;;;;;;;7.30;2.80;;;30.20;90.10;;;;;;1939709;72;21113;-84
2021/10/06 02:47:24;;;;;;;4.42;2.37;;;30.20;89.60;;;;;;1930103;73;21190;-81
2021/10/06 02:49:55;;;;;;;6.05;2.20;;;30.20;89.40;;;;;;1938989;73;21614;-82
2021/10/06 02:52:26;;;;;;;4.60;2.12;;;30.20;89.30;;;;;;1934573;73;21281;-83
2021/10/06 02:54:57;;;;;;;5.10;2.12;;;30.30;89.60;;;;;;1931357;73;21292;-83
2021/10/06 02:57:28;;;;;;;4.78;2.20;;;30.40;89.00;;;;;;1937465;73;21595;-75
2021/10/06 02:59:59;;;;;;;2.83;1.82;;;30.50;89.10;;;;;;1890192;73;21164;-75
2021/10/06 03:02:34;;;;;;;4.53;3.08;;;30.60;88.70;;;;;;1935200;72;21606;-77
2021/10/06 03:05:06;;;;;;;6.12;2.55;;;30.70;87.40;;;;;;1877863;75;21123;-77
2021/10/06 03:07:36;;;;;;;8.08;2.00;;;30.80;87.50;;;;;;1877805;75;21149;-77
2021/10/06 03:10:09;;;;;;;4.40;1.85;;;30.90;87.70;;;;;;1885178;74;21116;-76
2021/10/06 03:12:41;;;;;;;4.45;2.40;;;31.00;87.00;;;;;;1878311;74;21636;-78
2021/10/06 03:15:13;;;;;;;5.00;2.17;;;31.10;86.40;;;;;;1896270;74;21104;-76
2021/10/06 03:17:44;;;;;;;4.12;1.70;;;31.10;86.50;;;;;;1894598;75;21684;-78
2021/10/06 03:20:16;;;;;;;4.87;1.87;;;31.30;86.50;;;;;;1889953;74;21208;-78
2021/10/06 03:22:47;;;;;;;4.75;1.77;;;31.30;86.00;;;;;;1895531;73;21165;-78
2021/10/06 03:25:18;;;;;;;4.60;2.02;;;31.50;85.40;;;;;;1909234;73;21637;-76
2021/10/06 03:27:56;;;;;;;6.17;2.20;;;31.60;85.20;;;;;;1910329;74;22116;-79
2021/10/06 03:30:29;;;;;;;4.58;2.70;;;31.60;85.70;;;;;;1871125;76;21641;-78
2021/10/06 03:33:00;;;;;;;5.00;2.17;;;31.80;85.30;;;;;;1940162;73;21682;-77
2021/10/06 03:35:31;;;;;;;3.62;1.92;;;31.90;84.10;;;;;;1935862;73;21222;-78
2021/10/06 03:38:02;;;;;;;3.60;1.80;;;32.00;83.70;;;;;;1922517;73;21158;-78
2021/10/06 03:40:33;;;;;;;5.58;2.17;;;32.00;83.80;;;;;;1921083;73;21096;-77
2021/10/06 03:43:03;;;;;;;4.20;2.00;;;32.00;83.70;;;;;;1877470;74;21129;-76
2021/10/06 03:45:34;;;;;;;4.62;1.90;;;32.00;82.80;;;;;;1914759;73;21554;-78
2021/10/06 03:48:05;;;;;;;5.08;2.15;;;32.00;83.40;;;;;;1929734;72;21169;-78
2021/10/06 03:50:36;;;;;;;5.03;1.98;;;32.10;83.30;;;;;;1926234;72;21684;-78
2021/10/06 03:53:07;;;;;;;3.55;1.87;;;32.10;83.10;;;;;;1933051;72;21136;-76
2021/10/06 03:55:39;;;;;;;3.60;2.10;;;32.20;82.90;;;;;;1892810;73;21213;-75
2021/10/06 03:58:10;;;;;;;4.60;2.08;;;32.30;82.30;;;;;;1944682;73;21604;-75
2021/10/06 04:00:41;;;;;;;5.42;2.08;;;32.40;82.90;;;;;;1893941;74;21088;-77
2021/10/06 04:03:14;;;;;;;3.50;1.72;;;32.40;82.30;;;;;;1893737;75;21156;-76
2021/10/06 04:05:45;;;;;;;7.40;2.10;;;32.50;82.10;;;;;;1889350;73;21225;-75
2021/10/06 04:08:17;;;;;;;2.70;1.60;;;32.70;81.70;;;;;;1897408;74;21135;-76
2021/10/06 04:10:48;;;;;;;3.33;1.55;;;32.70;81.20;;;;;;1907573;73;21207;-76
2021/10/06 04:13:19;;;;;;;4.72;1.75;;;32.70;80.90;;;;;;1898946;74;21109;-76
2021/10/06 04:15:53;;;;;;;3.87;1.77;;;32.70;81.10;;;;;;1917819;73;21200;-76
2021/10/06 04:18:26;;;;;;;3.83;2.02;;;32.70;81.60;;;;;;1878821;74;21228;-75
2021/10/06 04:20:57;;;;;;;2.98;1.35;;;32.70;81.10;;;;;;1911980;73;21414;-75
2021/10/06 04:23:30;;;;;;;2.92;1.60;;;32.60;80.10;;;;;;1909662;73;21660;-77
2021/10/06 04:26:05;;;;;;;2.58;1.42;;;32.60;80.80;;;;;;1881674;73;21142;-77
2021/10/06 04:28:37;;;;;;;2.77;1.60;;;32.50;81.10;;;;;;1901635;74;21247;-77
2021/10/06 04:31:09;;;;;;;3.87;1.40;;;32.40;81.30;;;;;;1874814;74;21720;-75
2021/10/06 04:33:40;;;;;;;3.17;1.20;;;32.50;80.90;;;;;;1928279;73;21855;-75
2021/10/06 04:36:11;;;;;;;2.92;1.60;;;32.70;80.10;;;;;;1912932;73;21622;-76
2021/10/06 04:38:42;;;;;;;4.95;1.27;;;32.80;78.20;;;;;;1942453;73;21129;-75
2021/10/06 04:41:13;;;;;;;2.60;1.30;;;32.90;78.30;;;;;;1922845;74;21191;-75
2021/10/06 04:43:44;;;;;;;2.70;1.65;;;33.00;77.40;;;;;;1940810;73;21148;-75
2021/10/06 04:46:17;;;;;;;2.90;1.52;;;33.10;76.80;;;;;;1934119;73;21124;-75
2021/10/06 04:48:48;;;;;;;3.58;1.55;;;33.00;76.60;;;;;;1900396;75;21124;-77
2021/10/06 04:51:19;;;;;;;7.62;2.55;;;33.10;75.60;;;;;;1908338;73;21581;-77
2021/10/06 04:53:49;;;;;;;5.17;2.37;;;33.10;75.70;;;;;;1926830;73;21794;-77
2021/10/06 04:56:23;;;;;;;3.27;1.75;;;33.10;76.50;;;;;;1932479;73;21436;-76
2021/10/06 04:58:54;;;;;;;8.30;1.57;;;33.20;76.00;;;;;;1919265;73;21134;-78
2021/10/06 05:01:25;;;;;;;3.33;1.35;;;33.30;76.70;;;;;;1916459;73;21375;-76
2021/10/06 05:03:56;;;;;;;4.25;1.98;;;33.40;75.80;;;;;;1918881;73;21659;-76
2021/10/06 05:06:27;;;;;;;5.20;1.82;;;33.40;75.20;;;;;;1933697;73;21113;-76
2021/10/06 05:08:58;;;;;;;4.85;2.42;;;33.40;75.60;;;;;;1875707;73;21602;-77
2021/10/06 05:11:29;;;;;;;4.78;2.42;;;33.30;75.90;;;;;;1916688;73;21175;-76
2021/10/06 05:14:00;;;;;;;3.55;1.40;;;33.30;74.30;;;;;;1942773;73;21108;-77
2021/10/06 05:16:34;;;;;;;2.10;1.10;;;33.30;73.90;;;;;;1953288;72;21636;-76
2021/10/06 05:19:08;;;;;;;2.80;1.40;;;33.20;74.50;;;;;;1961000;73;21219;-75
2021/10/06 05:21:38;;;;;;;4.22;1.75;;;33.20;74.60;;;;;;1891616;72;21499;-77
2021/10/06 05:24:09;;;;;;;2.35;1.00;;;33.20;74.40;;;;;;1923256;73;21244;-77
2021/10/06 05:26:40;;;;;;;2.80;0.70;;;33.20;74.90;;;;;;1926199;72;21133;-78
2021/10/06 05:29:11;;;;;;;3.58;1.10;;;33.10;74.30;;;;;;1912074;72;21262;-75
2021/10/06 05:31:41;;;;;;;3.15;1.10;;;33.10;74.10;;;;;;1921793;72;21162;-76
2021/10/06 05:34:12;;;;;;;1.77;1.00;;;33.20;73.90;;;;;;1934464;72;21160;-77
2021/10/06 05:36:43;;;;;;;2.87;1.40;;;33.20;73.70;;;;;;1877952;74;21462;-76
2021/10/06 05:39:14;;;;;;;2.85;1.00;;;33.30;73.80;;;;;;1906068;73;21161;-76
2021/10/06 05:41:44;;;;;;;2.05;0.85;;;33.30;74.10;;;;;;1890482;73;21108;-76
2021/10/06 05:44:15;;;;;;;4.55;1.25;;;33.30;74.20;;;;;;1914888;72;21147;-78
2021/10/06 05:46:46;;;;;;;3.37;1.02;;;33.30;73.90;;;;;;1890325;74;21157;-77
2021/10/06 05:49:17;;;;;;;4.30;1.30;;;33.50;73.80;;;;;;1913055;73;21593;-76
2021/10/06 05:51:48;;;;;;;2.50;1.00;;;33.50;73.20;;;;;;1940802;73;21591;-76
2021/10/06 05:54:22;;;;;;;2.20;1.07;;;33.60;74.20;;;;;;1917971;73;21600;-75
2021/10/06 05:56:54;;;;;;;19.77;2.15;;;33.50;75.80;;;;;;1918666;73;21133;-76
2021/10/06 05:59:34;;;;;;;12.82;2.15;;;33.40;77.70;;;;;;1919442;73;21133;-76
2021/10/06 06:02:02;;;;;;;12.10;2.22;;;33.10;84.10;;;;;;1914050;74;21514;-76
2021/10/06 06:04:33;;;;;;;5.70;1.50;;;32.40;89.80;;;;;;1916959;73;21526;-74
2021/10/06 06:07:05;;;;;;;7.95;2.10;;;31.80;92.20;;;;;;1921898;73;21133;-75
2021/10/06 06:09:36;;;;;;;7.60;2.27;;;31.20;94.90;;;;;;1924488;73;21199;-74
2021/10/06 06:12:14;;;;;;;4.60;0.90;;;30.70;94.30;;;;;;1925730;73;21133;-73
2021/10/06 06:14:47;;;;;;;2.87;0.88;;;30.40;94.70;;;;;;1917940;73;21189;-73
2021/10/06 06:17:39;;;;;;;3.98;1.40;;;29.90;95.10;;;;;;1918690;73;21141;-74
2021/10/06 06:20:12;;;;;;;3.67;1.32;;;29.60;98.00;;;;;;1807207;77;21642;-76
2021/10/06 06:22:44;;;;;;;2.42;0.80;;;29.30;98.30;;;;;;1808421;77;21584;-76
2021/10/06 06:25:14;;;;;;;5.62;0.93;;;29.10;99.90;;;;;;1812926;77;21705;-75
2021/10/06 06:27:45;;;;;;;3.65;0.65;;;28.80;99.90;;;;;;1801080;77;21765;-75
2021/10/06 06:30:16;;;;;;;2.65;0.62;;;28.70;99.70;;;;;;1804510;77;21149;-75
2021/10/06 06:32:47;;;;;;;2.17;0.80;;;28.70;99.90;;;;;;1792164;77;21246;-74
2021/10/06 06:35:19;;;;;;;4.25;1.22;;;28.70;99.90;;;;;;1816421;76;21649;-74
2021/10/06 06:37:49;;;;;;;4.37;1.30;;;28.60;99.90;;;;;;1792150;78;21108;-75
2021/10/06 06:40:20;;;;;;;3.40;1.50;;;28.60;99.90;;;;;;1844488;76;21230;-77
2021/10/06 06:51:29;;;;;;;2.35;0.95;;;28.80;99.70;;;;;;1886574;75;21110;-74
2021/10/06 06:54:03;;;;;;;3.72;0.88;;;29.00;99.90;;;;;;1884557;74;21171;-76
2021/10/06 06:56:38;;;;;;;5.00;1.27;;;29.00;99.90;;;;;;1867868;74;21627;-75
2021/10/06 06:59:14;;;;;;;4.95;1.30;;;29.00;99.90;;;;;;1804235;78;21080;-77
2021/10/06 07:01:47;;;;;;;2.83;1.15;;;29.30;99.90;;;;;;1848493;75;21657;-75
2021/10/06 07:04:18;;;;;;;2.67;1.10;;;29.30;99.70;;;;;;1850578;75;22051;-76
2021/10/06 07:06:51;;;;;;;3.22;1.20;;;29.50;98.90;;;;;;1811429;77;21642;-78
2021/10/06 07:09:30;;;;;;;1.80;0.95;;;29.60;98.20;;;;;;1804692;78;21238;-77
2021/10/06 07:11:54;;;;;;;3.62;1.20;;;29.70;97.80;;;;;;1809528;77;21225;-76
2021/10/06 07:14:25;;;;;;;5.80;1.30;;;29.80;98.10;;;;;;1799217;78;21489;-77
2021/10/06 07:16:56;;;;;;;7.00;1.80;;;30.00;98.50;;;;;;1800307;77;21158;-78
2021/10/06 07:19:27;;;;;;;3.77;1.40;;;30.10;97.80;;;;;;1810979;77;21126;-79
2021/10/06 07:21:58;;;;;;;4.90;1.42;;;30.10;97.90;;;;;;1777434;76;21605;-78
2021/10/06 07:24:33;;;;;;;6.28;1.67;;;30.30;97.50;;;;;;1803611;79;21127;-77
2021/10/06 07:27:05;;;;;;;4.35;1.80;;;30.50;97.40;;;;;;1821967;77;21540;-77
2021/10/06 07:29:38;;;;;;;4.42;1.95;;;30.30;97.60;;;;;;1837670;76;21718;-77
2021/10/06 07:32:10;;;;;;;5.70;1.60;;;30.40;97.80;;;;;;1798877;78;21207;-77
2021/10/06 07:34:42;;;;;;;3.70;1.42;;;30.30;97.60;;;;;;1777869;77;21652;-77
2021/10/06 07:37:15;;;;;;;4.08;1.47;;;30.40;97.60;;;;;;1864849;76;21163;-77
2021/10/06 07:39:47;;;;;;;2.87;1.20;;;30.40;97.60;;;;;;1851814;76;21214;-79
2021/10/06 07:42:20;;;;;;;3.37;1.50;;;30.50;97.30;;;;;;1830252;77;21241;-78
2021/10/06 07:44:57;;;;;;;4.65;1.57;;;30.60;97.40;;;;;;1841400;76;21118;-78
2021/10/06 07:47:26;;;;;;;6.78;1.40;;;30.70;97.40;;;;;;1807905;77;21679;-76
2021/10/06 07:49:59;;;;;;;4.00;1.50;;;30.70;97.80;;;;;;1815460;76;21245;-78
2021/10/06 07:52:32;;;;;;;3.67;1.30;;;30.80;97.40;;;;;;1811616;78;21635;-76
2021/10/06 07:55:06;;;;;;;3.20;1.25;;;30.70;96.70;;;;;;1860538;76;21158;-74
2021/10/06 07:57:39;;;;;;;2.85;1.37;;;31.00;96.30;;;;;;1786626;78;21199;-76
2021/10/06 08:00:15;;;;;;;3.97;1.33;;;31.00;95.80;;;;;;1867716;76;21256;-77
2021/10/06 08:02:48;;;;;;;2.58;1.30;;;31.00;96.00;;;;;;1874384;76;21267;-80
2021/10/06 08:05:24;;;;;;;3.85;1.27;;;31.10;95.50;;;;;;1859397;75;21248;-81
2021/10/06 08:08:01;;;;;;;3.17;1.05;;;31.10;95.30;;;;;;1860114;76;21134;-79
2021/10/06 08:11:21;;;;;;;3.85;1.45;;;31.20;94.80;;;;;;1878631;74;21527;-80
2021/10/06 08:13:44;;;;;;;3.77;1.25;;;31.20;94.50;;;;;;1831614;76;21882;-82
2021/10/06 08:16:19;;;;;;;2.15;0.98;;;31.20;94.60;;;;;;1804924;77;21215;-80
2021/10/06 08:18:53;;;;;;;2.27;1.20;;;31.20;94.10;;;;;;1810545;77;21662;-82
2021/10/06 08:21:28;;;;;;;3.90;1.52;;;31.30;94.30;;;;;;1774921;78;21140;-81
2021/10/06 08:24:11;;;;;;;4.85;1.50;;;31.30;94.50;;;;;;1792662;78;21832;-81
2021/10/06 08:26:45;;;;;;;3.60;1.67;;;31.20;94.40;;;;;;1818827;77;21894;-79
2021/10/06 08:29:18;;;;;;;3.80;1.50;;;31.30;94.50;;;;;;1811074;78;21227;-84
2021/10/06 08:31:52;;;;;;;3.50;1.40;;;31.20;94.50;;;;;;1840498;75;21229;-85
2021/10/06 08:34:33;;;;;;;4.58;1.75;;;31.20;94.20;;;;;;1844881;75;21194;-86
2021/10/06 08:37:07;;;;;;;2.92;1.30;;;31.10;94.40;;;;;;1847376;76;21182;-80
2021/10/06 08:39:40;;;;;;;3.47;1.22;;;30.90;94.70;;;;;;1847859;75;21169;-78
2021/10/06 08:42:14;;;;;;;4.78;1.60;;;30.40;95.20;;;;;;1841856;76;21674;-77
2021/10/06 08:44:50;;;;;;;4.87;1.80;;;30.30;96.00;;;;;;1796932;77;21246;-78
2021/10/06 08:47:24;;;;;;;8.38;2.40;;;29.90;97.20;;;;;;1747700;80;21796;-77
2021/10/06 08:49:59;;;;;;;3.90;1.40;;;29.60;97.70;;;;;;1780617;78;21271;-78
2021/10/06 08:52:33;;;;;;;5.92;2.17;;;29.30;97.90;;;;;;1838599;76;21078;-77
2021/10/06 08:55:10;;;;;;;4.12;1.60;;;29.10;98.50;;;;;;1827169;76;21174;-78
2021/10/06 08:57:48;;;;;;;4.40;1.65;;;28.90;99.20;;;;;;1771855;78;22023;-76
2021/10/06 09:00:22;;;;;;;7.10;2.10;;;28.60;99.20;;;;;;1811481;77;21094;-79
2021/10/06 09:02:56;;;;;;;4.35;1.70;;;28.70;99.90;;;;;;1807053;78;21210;-78
2021/10/06 09:05:30;;;;;;;5.12;1.92;;;28.50;99.90;;;;;;1826107;76;21121;-78
2021/10/06 09:08:08;;;;;;;4.53;1.95;;;28.50;99.90;;;;;;1824862;76;21708;-79
2021/10/06 09:10:42;;;;;;;4.40;1.67;;;28.30;99.90;;;;;;1822115;76;21213;-78
2021/10/06 09:13:16;;;;;;;10.78;2.00;;;28.40;99.90;;;;;;1809026;77;21117;-78
2021/10/06 09:15:51;;;;;;;6.42;2.67;;;28.20;99.90;;;;;;1800757;76;21508;-78
2021/10/06 09:18:27;;;;;;;5.85;1.95;;;28.90;99.90;;;;;;1821870;77;21260;-80
2021/10/06 09:21:02;;;;;;;4.42;2.08;;;28.20;99.90;;;;;;1882834;75;21629;-77
2021/10/06 09:23:39;;;;;;;6.12;2.02;;;28.20;99.90;;;;;;1844695;75;21161;-77
2021/10/06 09:26:14;;;;;;;5.03;1.80;;;28.40;99.90;;;;;;1842507;76;21139;-77
2021/10/06 09:28:52;;;;;;;6.80;1.75;;;28.40;99.90;;;;;;1810526;77;21180;-79
2021/10/06 09:31:25;;;;;;;8.80;2.95;;;28.50;99.90;;;;;;1844390;74;21133;-79
2021/10/06 09:34:02;;;;;;;5.47;1.80;;;28.40;99.90;;;;;;1844352;76;21260;-80
2021/10/06 09:36:36;;;;;;;5.35;1.20;;;;;;;;;;1826752;76;21179;-81
2021/10/06 09:39:12;;;;;;;4.50;1.32;;;28.10;99.90;;;;;;1786820;77;21230;-81
2021/10/06 09:41:47;;;;;;;3.58;1.35;;;;;;;;;;1817391;78;21080;-82
2021/10/06 09:44:22;;;;;;;3.72;1.15;;;27.60;99.90;;;;;;1810206;76;21696;-81
2021/10/06 09:46:58;;;;;;;4.40;1.42;;;26.60;99.90;;;;;;1875336;74;21202;-82
2021/10/06 09:49:34;;;;;;;4.28;1.15;;;27.20;99.90;;;;;;1874162;74;21149;-82
2021/10/06 09:52:09;;;;;;;5.40;1.45;;;27.10;99.90;;;;;;1818231;75;21166;-79
2021/10/06 09:54:45;;;;;;;3.98;1.20;;;27.10;99.90;;;;;;1811696;77;21128;-78
2021/10/06 09:57:21;;;;;;;4.67;1.20;;;27.10;97.50;;;;;;1815023;77;21125;-78
2021/10/06 10:00:03;;;;;;;5.58;1.60;;;27.00;97.40;;;;;;1820587;77;21179;-79
2021/10/06 10:02:52;;;;;;;3.52;1.20;;;27.00;97.80;;;;;;1880156;75;21240;-79
2021/10/06 10:05:39;;;;;;;;;;;;;;;;;;;;;
2021/10/06 10:08:12;;;;;;;3.83;0.88;;;27.00;97.80;;;;;;1856868;74;21751;-76
2021/10/06 10:10:50;;;;;;;5.70;1.15;;;27.00;97.20;;;;;;1877466;73;21153;-75
2021/10/06 10:13:24;;;;;;;6.08;1.17;;;27.00;98.00;;;;;;1872881;74;22485;-76
2021/10/06 10:16:04;;;;;;;4.40;1.42;;;27.10;98.00;;;;;;1842578;76;21138;-77
2021/10/06 10:18:51;;;;;;;9.00;1.60;;;27.00;98.20;;;;;;1820693;78;21159;-75
2021/10/06 10:21:38;;;;;;;4.08;1.32;;;26.80;98.10;;;;;;1818469;76;21228;-76
2021/10/06 10:24:23;;;;;;;6.20;1.87;;;26.70;98.50;;;;;;1824951;77;21291;-74
2021/10/06 10:27:18;;;;;;;8.50;2.05;;;26.60;99.10;;;;;;1825981;76;21226;-74
2021/10/06 10:33:07;;;;;;;3.75;1.98;;;26.60;99.90;;;;;;1811829;78;21187;-76
2021/10/06 10:35:47;;;;;;;10.10;2.40;;;26.50;99.90;;;;;;1844543;75;21232;-76
2021/10/06 10:38:45;;;;;;;7.12;2.55;;;26.50;99.90;;;;;;1845640;75;21115;-76
2021/10/06 10:41:29;;;;;;;5.85;2.70;;;26.50;99.90;;;;;;1847078;75;21590;-77
2021/10/06 10:44:07;;;;;;;8.48;2.98;;;26.50;99.90;;;;;;1839451;75;21133;-76
2021/10/06 10:46:44;;;;;;;10.82;2.87;;;26.40;99.90;;;;;;1838414;76;21659;-77
2021/10/06 10:49:40;;;;;;;6.20;1.70;;;26.30;99.90;;;;;;1779643;78;21288;-76
2021/10/06 10:52:17;;;;;;;7.00;1.57;;;26.30;99.90;;;;;;1793802;79;21243;-77
2021/10/06 10:55:02;;;;;;;5.22;2.22;;;26.30;99.90;;;;;;1848810;75;21145;-75
2021/10/06 10:57:45;;;;;;;6.12;1.87;;;26.30;99.90;;;;;;1812691;78;21182;-76
2021/10/06 11:00:35;;;;;;;7.92;2.42;;;26.20;99.90;;;;;;1828526;76;22194;-77
2021/10/06 11:03:27;;;;;;;9.40;2.00;;;26.20;99.90;;;;;;1876400;75;21190;-75
2021/10/06 11:06:05;;;;;;;8.23;2.25;;;26.30;99.90;;;;;;1856813;75;21176;-76
2021/10/06 11:09:00;;;;;;;5.85;1.98;;;26.30;99.90;;;;;;1862780;76;21951;-76
2021/10/06 11:11:54;;;;;;;6.80;2.30;;;26.40;99.90;;;;;;1888499;75;21184;-76
2021/10/06 11:14:44;;;;;;;5.65;2.40;;;26.40;99.90;;;;;;1899712;74;21110;-77
2021/10/06 11:17:34;;;;;;;6.37;2.25;;;26.40;99.90;;;;;;1870087;74;21191;-78
2021/10/06 11:20:13;;;;;;;6.75;2.62;;;26.50;99.90;;;;;;1865071;75;21134;-78
2021/10/06 11:26:10;;;;;;;9.68;3.65;;;26.70;99.50;;;;;;1828790;77;21143;-76
2021/10/06 11:29:01;;;;;;;8.23;3.70;;;26.70;99.70;;;;;;1863289;74;21683;-78
2021/10/06 11:31:49;;;;;;;11.50;3.12;;;26.70;99.20;;;;;;1847652;77;21219;-79
2021/10/06 11:34:37;;;;;;;7.78;2.47;;;26.80;99.00;;;;;;1839937;76;21646;-79
2021/10/06 11:37:34;;;;;;;11.28;2.75;;;26.80;98.80;;;;;;1858370;75;21304;-78
2021/10/06 11:40:22;;;;;;;8.13;3.00;;;26.80;98.70;;;;;;1852398;76;21226;-77
2021/10/06 11:43:14;;;;;;;8.23;2.87;;;26.80;98.80;;;;;;1837444;74;21362;-78
2021/10/06 11:46:16;;;;;;;5.08;2.30;;;26.80;98.90;;;;;;1832352;75;21192;-79
2021/10/06 11:49:18;;;;;;;6.90;2.98;;;26.70;98.90;;;;;;1823234;76;21672;-77
2021/10/06 11:52:24;;;;;;;;;;;;;;;;;;;;;
2021/10/06 12:01:28;;;;;;;7.62;2.17;;;26.70;99.20;;;;;;1861228;75;21233;-75
2021/10/06 12:12:12;;;;;;;5.35;2.60;;;26.60;99.20;;;;;;1834839;76;21075;-75
2021/10/06 12:14:47;;;;;;;5.93;2.27;;;26.60;99.20;;;;;;1886503;75;21123;-75
2021/10/06 12:17:22;;;;;;;7.10;3.08;;;26.60;99.60;;;;;;1889482;75;21652;-76
2021/10/06 12:19:59;;;;;;;7.62;2.90;;;26.60;99.40;;;;;;1863192;76;21270;-76
2021/10/06 12:22:36;;;;;;;5.83;2.98;;;26.60;99.20;;;;;;1857613;75;21090;-75
2021/10/06 12:25:11;;;;;;;5.97;3.62;;;26.60;99.30;;;;;;1860925;74;21172;-78
2021/10/06 12:30:52;;;;;;;9.33;3.42;;;26.80;99.90;;;;;;1743917;80;21173;-85
2021/10/06 12:33:54;;;;;;;11.45;3.58;;;26.70;99.90;;;;;;1737761;81;21725;-84
2021/10/06 12:36:37;;;;;;;8.33;3.00;;;26.60;99.90;;;;;;1705465;81;21181;-84
2021/10/06 12:42:55;;;;;;;7.12;3.02;;;26.40;99.90;;;;;;1746744;80;21225;-84
2021/10/06 12:45:32;;;;;;;6.30;2.60;;;26.30;99.90;;;;;;1694663;84;21151;-84
2021/10/06 12:48:22;;;;;;;5.60;2.60;;;26.30;99.90;;;;;;1690892;84;21230;-84
2021/10/06 12:50:58;;;;;;;4.53;2.33;;;26.30;99.90;;;;;;1691994;84;21592;-83
2021/10/06 12:53:38;;;;;;;4.97;2.37;;;26.40;99.90;;;;;;1689485;84;21777;-85
2021/10/06 12:56:10;;;;;;;;;;;26.40;99.90;;;;;;1694270;82;21669;-85
2021/10/06 12:58:45;;;;;;;7.10;3.40;;;26.50;99.90;;;;;;1690985;84;20178;-84
2021/10/06 13:01:17;;;;;;;6.28;2.87;;;26.50;99.90;;;;;;1711299;83;21844;-83
2021/10/06 13:03:50;;;;;;;5.97;2.90;;;26.50;99.90;;;;;;1734888;82;21148;-84
2021/10/06 13:06:24;;;;;;;7.20;2.85;;;26.50;99.90;;;;;;1728351;82;21198;-85
2021/10/06 13:08:59;;;;;;;7.20;3.30;;;26.40;99.90;;;;;;1779745;80;21271;-84
2021/10/06 13:11:39;;;;;;;7.70;3.90;;;26.30;99.90;;;;;;1772936;80;21184;-85
2021/10/06 13:14:10;;;;;;;7.62;4.53;;;26.30;99.90;;;;;;1774330;81;21176;-84
2021/10/06 13:16:44;;;;;;;10.35;4.17;;;26.30;99.90;;;;;;1760626;80;21327;-84
2021/10/06 13:21:10;;;;;;;9.85;3.90;;;26.30;99.90;;;;;;1762690;80;21145;-84
2021/10/06 13:22:25;;;;;;;7.87;4.20;;;26.20;99.90;;;;;;1766891;78;21146;-85
2021/10/06 13:24:59;;;;;;;6.65;3.62;;;26.20;99.90;;;;;;1790862;78;21261;-83
2021/10/06 13:27:32;;;;;;;9.70;3.77;;;26.20;99.90;;;;;;1762810;80;21197;-84
2021/10/06 13:30:08;;;;;;;7.00;3.55;;;26.20;99.90;;;;;;1788652;80;21630;-86
2021/10/06 13:32:42;;;;;;;6.22;3.12;;;26.20;99.90;;;;;;1786788;80;21112;-85
2021/10/06 13:35:17;;;;;;;7.97;3.52;;;26.20;99.90;;;;;;1765554;80;21135;-86
2021/10/06 13:37:51;;;;;;;8.58;3.37;;;26.20;99.90;;;;;;1792230;80;21123;-83
2021/10/06 13:40:23;;;;;;;10.43;3.52;;;;;;;;;;1813167;77;21133;-83
2021/10/06 13:43:14;;;;;;;11.45;3.70;;;26.40;99.90;;;;;;1819626;77;21221;-84
2021/10/06 13:45:51;;;;;;;7.95;3.60;;;26.20;99.90;;;;;;1815457;77;21650;-83
2021/10/06 13:48:38;;;;;;;9.45;3.65;;;26.20;99.90;;;;;;1813825;77;21163;-84
2021/10/06 13:51:08;;;;;;;7.30;3.72;;;26.20;99.90;;;;;;1808081;78;21107;-86
2021/10/06 13:53:41;;;;;;;7.72;3.45;;;26.20;99.90;;;;;;1828066;75;21136;-85
2021/10/06 13:56:18;;;;;;;7.40;3.90;;;26.20;99.90;;;;;;1823944;77;21150;-84
2021/10/06 13:58:50;;;;;;;8.83;3.65;;;26.20;99.90;;;;;;1819281;77;21538;-85
2021/10/06 14:01:23;;;;;;;7.20;4.28;;;26.20;99.90;;;;;;1824039;76;21174;-86
2021/10/06 14:03:56;;;;;;;9.65;4.47;;;26.20;99.90;;;;;;1812363;77;21119;-85
2021/10/06 14:07:06;;;;;;;8.63;4.17;;;26.20;99.90;;;;;;1814787;77;21203;-85